Time;durP1;ratioP1;P1;durP2;ratioP2;P2;SDS_P1;SDS_P2;PMS_P1;PMS_P2;Temp;Humidity;BMP_temperature;BMP_pressure;BME280_temperature;BME280_humidity;BME280_pressure;Samples;Min_cycle;Max_cycle;Signal;HPM_P1;HPM_P2
2022/09/25 00:00:18;;;;;;;7.70;2.78;;;12.60;99.90;;;;;;4978880;28;25084;-73
2022/09/25 00:02:44;;;;;;;6.10;2.33;;;12.60;99.90;;;;;;4996949;28;25089;-73
2022/09/25 00:05:10;;;;;;;4.32;2.35;;;12.60;99.90;;;;;;5005264;28;25086;-73
2022/09/25 00:07:35;;;;;;;5.60;2.60;;;12.70;99.90;;;;;;4996110;28;25095;-74
2022/09/25 00:10:01;;;;;;;6.10;2.70;;;12.70;99.90;;;;;;5006903;28;25085;-73
2022/09/25 00:12:26;;;;;;;14.05;3.05;;;12.60;99.90;;;;;;5006905;28;25100;-73
2022/09/25 00:14:52;;;;;;;8.13;3.28;;;12.60;99.90;;;;;;4999328;28;25106;-73
2022/09/25 00:17:17;;;;;;;10.95;3.42;;;12.50;99.90;;;;;;4999438;28;25096;-73
2022/09/25 00:19:49;;;;;;;9.30;2.35;;;12.60;99.90;;;;;;4980872;28;25098;-72
2022/09/25 00:22:15;;;;;;;8.02;2.40;;;12.60;99.90;;;;;;5006926;28;25076;-74
2022/09/25 00:24:41;;;;;;;6.53;2.67;;;12.60;99.90;;;;;;5007127;28;25135;-74
2022/09/25 00:27:07;;;;;;;9.70;2.90;;;12.60;99.90;;;;;;4994154;28;25077;-73
2022/09/25 00:29:35;;;;;;;9.30;2.55;;;12.60;99.90;;;;;;4994555;28;25180;-72
2022/09/25 00:32:01;;;;;;;6.97;2.63;;;12.70;99.90;;;;;;5000705;28;25154;-73
2022/09/25 00:34:27;;;;;;;6.30;2.35;;;12.70;99.90;;;;;;4982754;28;25102;-73
2022/09/25 00:36:52;;;;;;;7.97;2.30;;;12.80;99.90;;;;;;5004826;28;25161;-74
2022/09/25 00:39:18;;;;;;;9.77;2.90;;;12.70;99.90;;;;;;5003225;28;25098;-72
2022/09/25 00:41:44;;;;;;;6.40;2.60;;;12.60;99.90;;;;;;5002974;28;25103;-72
2022/09/25 00:44:46;;;;;;;10.48;2.83;;;12.50;99.90;;;;;;5004585;28;25103;-73
2022/09/25 00:47:16;;;;;;;7.22;2.10;;;12.50;99.90;;;;;;5002514;28;25058;-73
2022/09/25 00:49:42;;;;;;;9.40;2.67;;;12.50;99.90;;;;;;4994844;28;25093;-73
2022/09/25 00:52:12;;;;;;;8.23;2.72;;;12.50;99.90;;;;;;4997563;28;25088;-73
2022/09/25 00:55:05;;;;;;;5.65;2.30;;;12.50;99.90;;;;;;5003221;28;25074;-72
2022/09/25 00:57:33;;;;;;;5.22;2.72;;;12.50;99.90;;;;;;4997944;28;25150;-73
2022/09/25 01:00:06;;;;;;;10.88;2.72;;;12.50;99.90;;;;;;4994384;28;25076;-72
2022/09/25 01:02:37;;;;;;;3.65;2.47;;;12.50;99.90;;;;;;4992296;28;25112;-73
2022/09/25 01:05:08;;;;;;;8.23;2.38;;;12.50;99.90;;;;;;5003320;28;25057;-73
2022/09/25 01:07:37;;;;;;;5.70;2.40;;;12.50;99.90;;;;;;5003735;28;25048;-73
2022/09/25 01:10:05;;;;;;;4.07;2.40;;;12.50;99.90;;;;;;5001604;28;25054;-72
2022/09/25 01:12:32;;;;;;;7.07;2.20;;;12.50;99.90;;;;;;4991564;28;25078;-73
2022/09/25 01:14:58;;;;;;;5.05;2.20;;;12.50;99.90;;;;;;4996977;28;25066;-73
2022/09/25 01:17:39;;;;;;;8.68;2.70;;;12.50;99.90;;;;;;4999396;28;25079;-74
2022/09/25 01:20:13;;;;;;;3.83;1.90;;;12.50;99.90;;;;;;4989008;28;25081;-73
2022/09/25 01:23:08;;;;;;;8.07;2.67;;;12.50;99.90;;;;;;4999151;28;25099;-74
2022/09/25 01:26:05;;;;;;;5.03;2.00;;;12.50;99.90;;;;;;5001442;28;25075;-74
2022/09/25 01:28:50;;;;;;;6.40;2.97;;;12.50;99.90;;;;;;4992460;28;25079;-75
2022/09/25 01:31:28;;;;;;;7.07;2.35;;;12.50;99.90;;;;;;4972337;28;25162;-71
2022/09/25 01:33:59;;;;;;;5.38;2.40;;;12.50;99.90;;;;;;4958494;28;1083035;-73
2022/09/25 01:36:28;;;;;;;3.78;2.70;;;12.50;99.90;;;;;;4982459;28;25149;-74
2022/09/25 01:39:16;;;;;;;6.43;2.58;;;12.60;99.90;;;;;;4993773;28;25076;-75
2022/09/25 01:41:56;;;;;;;8.70;2.75;;;12.60;99.90;;;;;;4998596;28;25125;-74
2022/09/25 01:44:27;;;;;;;8.27;2.42;;;12.50;99.90;;;;;;4998617;28;25152;-74
2022/09/25 01:46:55;;;;;;;10.32;2.65;;;12.60;99.90;;;;;;5001034;28;25102;-73
2022/09/25 01:49:26;;;;;;;9.73;2.65;;;12.50;99.90;;;;;;4997683;28;25073;-73
2022/09/25 01:51:54;;;;;;;5.00;2.25;;;12.50;99.90;;;;;;5000123;28;25145;-75
2022/09/25 01:54:36;;;;;;;5.40;2.42;;;12.50;99.90;;;;;;4985112;28;25077;-73
2022/09/25 01:57:09;;;;;;;5.40;2.95;;;12.50;99.90;;;;;;4971654;28;25137;-72
2022/09/25 02:00:07;;;;;;;7.32;2.10;;;12.60;99.90;;;;;;4983642;28;25085;-73
2022/09/25 02:02:38;;;;;;;9.52;2.28;;;12.70;99.90;;;;;;5006466;28;25108;-75
2022/09/25 02:05:18;;;;;;;5.70;2.58;;;12.60;99.90;;;;;;5002070;28;25069;-74
2022/09/25 02:07:53;;;;;;;5.63;2.63;;;12.60;99.90;;;;;;5003683;28;25086;-74
2022/09/25 02:10:28;;;;;;;11.50;3.38;;;12.50;99.90;;;;;;5000442;28;25084;-74
2022/09/25 02:13:02;;;;;;;5.90;2.58;;;12.50;99.90;;;;;;4985165;28;25055;-74
2022/09/25 02:15:33;;;;;;;8.80;2.50;;;12.50;99.90;;;;;;4999245;28;25057;-73
2022/09/25 02:21:13;;;;;;;6.10;2.70;;;12.40;99.90;;;;;;5005317;28;25106;-73
2022/09/25 02:23:51;;;;;;;6.60;2.60;;;12.40;99.90;;;;;;5003157;28;25132;-73
2022/09/25 02:26:25;;;;;;;10.13;2.30;;;12.40;99.90;;;;;;5017277;28;25053;-73
2022/09/25 02:28:52;;;;;;;8.75;2.72;;;12.40;99.90;;;;;;4998090;28;25142;-73
2022/09/25 02:31:29;;;;;;;5.93;2.88;;;12.30;99.90;;;;;;5002506;28;25080;-73
2022/09/25 02:33:55;;;;;;;10.13;2.92;;;12.40;99.90;;;;;;5003141;28;25066;-73
2022/09/25 02:36:23;;;;;;;6.82;2.63;;;12.40;99.90;;;;;;5030792;28;25066;-72
2022/09/25 02:38:50;;;;;;;2.88;1.92;;;12.30;99.90;;;;;;5033910;28;25073;-74
2022/09/25 02:41:21;;;;;;;13.93;2.75;;;12.40;99.90;;;;;;5030384;28;25091;-72
2022/09/25 02:43:49;;;;;;;5.50;2.22;;;12.40;99.90;;;;;;5030148;28;25081;-73
2022/09/25 02:46:39;;;;;;;6.63;2.72;;;12.50;99.90;;;;;;5030444;28;25062;-72
2022/09/25 02:49:25;;;;;;;5.97;2.47;;;12.40;99.90;;;;;;5028888;28;25073;-74
2022/09/25 02:52:21;;;;;;;5.28;2.72;;;12.30;99.90;;;;;;5024387;28;25078;-74
2022/09/25 02:54:55;;;;;;;7.20;2.80;;;12.20;99.90;;;;;;5014821;28;25064;-74
2022/09/25 02:57:49;;;;;;;6.72;2.63;;;12.20;99.90;;;;;;5025984;28;25073;-72
2022/09/25 03:00:15;;;;;;;5.38;2.63;;;11.90;99.90;;;;;;5009923;28;25131;-74
2022/09/25 03:02:42;;;;;;;6.82;3.08;;;11.80;99.90;;;;;;5024259;28;25063;-74
2022/09/25 03:05:11;;;;;;;9.35;3.70;;;11.90;99.90;;;;;;5030809;28;25107;-74
2022/09/25 03:10:24;;;;;;;6.05;2.58;;;11.70;99.90;;;;;;5000387;28;25059;-73
2022/09/25 03:12:49;;;;;;;7.63;2.75;;;11.80;99.90;;;;;;4985924;28;25102;-73
2022/09/25 03:15:15;;;;;;;6.35;2.30;;;11.90;99.90;;;;;;5020879;28;25083;-74
2022/09/25 03:17:42;;;;;;;5.60;2.55;;;11.90;99.90;;;;;;5019137;28;25057;-72
2022/09/25 03:20:08;;;;;;;6.25;2.35;;;12.00;99.90;;;;;;5017679;28;25074;-73
2022/09/25 03:22:35;;;;;;;5.80;2.80;;;12.10;99.90;;;;;;5001997;28;25063;-73
2022/09/25 03:25:00;;;;;;;7.93;2.83;;;12.20;99.90;;;;;;5004449;28;25066;-73
2022/09/25 03:27:27;;;;;;;8.52;2.55;;;12.30;99.90;;;;;;5004914;28;25174;-74
2022/09/25 03:29:54;;;;;;;3.92;2.47;;;12.20;99.90;;;;;;4995758;28;25136;-73
2022/09/25 03:32:19;;;;;;;6.57;2.47;;;12.20;99.90;;;;;;4998051;28;25060;-72
2022/09/25 03:34:45;;;;;;;9.48;2.67;;;12.30;99.90;;;;;;4998170;28;25053;-74
2022/09/25 03:37:11;;;;;;;4.68;2.55;;;12.40;99.90;;;;;;4995134;28;25065;-73
2022/09/25 03:39:36;;;;;;;10.20;2.35;;;12.30;99.90;;;;;;5000008;28;25059;-73
2022/09/25 03:42:02;;;;;;;4.55;2.00;;;12.30;99.90;;;;;;5004408;28;25141;-72
2022/09/25 03:44:28;;;;;;;8.68;2.42;;;12.40;99.90;;;;;;5002560;28;25069;-73
2022/09/25 03:46:53;;;;;;;3.60;2.10;;;12.40;99.90;;;;;;4983431;28;25138;-73
2022/09/25 03:49:19;;;;;;;6.20;2.53;;;12.40;99.90;;;;;;5002860;28;25136;-73
2022/09/25 03:51:44;;;;;;;3.90;2.47;;;12.30;99.90;;;;;;5013933;28;25098;-72
2022/09/25 03:54:10;;;;;;;7.53;2.53;;;12.30;99.90;;;;;;4995631;28;25097;-73
2022/09/25 03:56:35;;;;;;;8.45;2.50;;;12.20;99.90;;;;;;4991245;28;25136;-73
2022/09/25 03:59:01;;;;;;;6.43;2.65;;;12.20;99.90;;;;;;4998112;28;25051;-75
2022/09/25 04:01:27;;;;;;;9.98;2.90;;;12.30;99.90;;;;;;5002316;28;25088;-73
2022/09/25 04:03:53;;;;;;;7.20;2.75;;;12.30;99.90;;;;;;4995484;28;25061;-72
2022/09/25 04:06:23;;;;;;;9.50;2.80;;;12.40;99.90;;;;;;5001905;28;25177;-74
2022/09/25 04:08:49;;;;;;;10.93;3.20;;;12.50;99.90;;;;;;4999132;28;25073;-73
2022/09/25 04:11:17;;;;;;;8.32;2.47;;;12.60;99.90;;;;;;4988800;28;25139;-73
2022/09/25 04:13:43;;;;;;;6.60;2.50;;;12.70;99.90;;;;;;4997923;28;25132;-73
2022/09/25 04:16:09;;;;;;;7.20;3.47;;;12.70;99.90;;;;;;5005337;28;25132;-72
2022/09/25 04:18:36;;;;;;;8.32;2.38;;;12.70;99.90;;;;;;5015613;28;25076;-73
2022/09/25 04:21:04;;;;;;;7.43;2.33;;;12.70;99.90;;;;;;5023052;28;25050;-72
2022/09/25 04:23:30;;;;;;;6.57;2.10;;;12.70;99.90;;;;;;5006001;28;25057;-73
2022/09/25 04:25:56;;;;;;;5.10;2.20;;;12.80;99.90;;;;;;4995750;28;25072;-74
2022/09/25 04:28:22;;;;;;;5.38;2.13;;;13.00;99.90;;;;;;5011797;28;25158;-73
2022/09/25 04:30:50;;;;;;;6.03;2.30;;;13.00;99.90;;;;;;5012239;28;25051;-73
2022/09/25 04:36:01;;;;;;;7.40;2.28;;;13.10;99.90;;;;;;5004719;28;25088;-73
2022/09/25 04:38:30;;;;;;;4.97;2.20;;;12.90;99.90;;;;;;4983485;28;25057;-73
2022/09/25 04:40:56;;;;;;;5.85;2.47;;;12.90;99.90;;;;;;4984282;28;25081;-73
2022/09/25 04:43:22;;;;;;;3.08;1.98;;;12.80;99.90;;;;;;5006336;28;25060;-73
2022/09/25 04:45:49;;;;;;;6.75;3.08;;;12.70;99.90;;;;;;5008532;28;25065;-73
2022/09/25 04:48:14;;;;;;;3.85;2.25;;;12.70;99.90;;;;;;5006737;28;25071;-72
2022/09/25 04:50:47;;;;;;;8.55;2.30;;;12.40;99.90;;;;;;5011992;28;25068;-73
2022/09/25 04:53:13;;;;;;;5.63;2.42;;;12.30;99.90;;;;;;5010044;28;25062;-73
2022/09/25 04:55:38;;;;;;;5.28;2.50;;;12.10;99.90;;;;;;4997521;28;25055;-73
2022/09/25 04:58:04;;;;;;;6.68;2.28;;;12.10;99.90;;;;;;5000154;28;25054;-73
2022/09/25 05:00:31;;;;;;;3.90;2.45;;;12.00;99.90;;;;;;5005109;28;25075;-72
2022/09/25 05:02:57;;;;;;;4.85;2.03;;;12.00;99.90;;;;;;4997565;28;25062;-73
2022/09/25 05:05:26;;;;;;;5.13;2.28;;;11.90;99.90;;;;;;4990799;28;25048;-73
2022/09/25 05:07:53;;;;;;;4.78;2.45;;;12.00;99.90;;;;;;5002521;28;25092;-72
2022/09/25 05:10:20;;;;;;;8.18;2.53;;;12.10;99.90;;;;;;5003577;28;25083;-72
2022/09/25 05:12:47;;;;;;;6.43;2.42;;;12.00;99.90;;;;;;5008984;28;25060;-72
2022/09/25 05:15:13;;;;;;;4.10;2.10;;;12.00;99.90;;;;;;4998150;28;25048;-72
2022/09/25 05:17:38;;;;;;;7.95;2.47;;;11.90;99.90;;;;;;5005809;28;25085;-74
2022/09/25 05:20:04;;;;;;;8.85;2.30;;;12.10;99.90;;;;;;4999880;28;25081;-73
2022/09/25 05:22:30;;;;;;;4.20;2.67;;;12.10;99.90;;;;;;5007860;28;25127;-75
2022/09/25 05:24:56;;;;;;;5.22;2.00;;;12.00;99.90;;;;;;4989152;28;25072;-72
2022/09/25 05:27:22;;;;;;;4.28;2.30;;;11.90;99.90;;;;;;5000094;28;25058;-73
2022/09/25 05:29:48;;;;;;;4.65;2.42;;;11.80;99.90;;;;;;4986997;28;25047;-73
2022/09/25 05:32:14;;;;;;;5.90;2.35;;;11.70;99.90;;;;;;4986192;28;25081;-74
2022/09/25 05:34:40;;;;;;;4.53;2.30;;;11.60;99.90;;;;;;5000727;28;25111;-74
2022/09/25 05:37:05;;;;;;;4.95;2.28;;;11.70;99.90;;;;;;5008964;28;25057;-73
2022/09/25 05:39:31;;;;;;;3.80;2.05;;;11.90;99.90;;;;;;4995060;28;25051;-74
2022/09/25 05:41:57;;;;;;;4.20;1.70;;;12.00;99.90;;;;;;5000328;28;25057;-75
2022/09/25 05:44:23;;;;;;;3.13;1.70;;;12.00;99.90;;;;;;5002544;28;25056;-73
2022/09/25 05:46:49;;;;;;;6.35;2.10;;;12.10;99.90;;;;;;5001274;28;25066;-73
2022/09/25 05:49:15;;;;;;;5.55;1.75;;;12.20;99.90;;;;;;4999254;28;25155;-72
2022/09/25 05:51:40;;;;;;;2.83;1.58;;;12.20;99.90;;;;;;5001781;28;25072;-71
2022/09/25 05:54:06;;;;;;;10.27;1.58;;;12.20;99.90;;;;;;4997807;28;25069;-72
2022/09/25 05:56:31;;;;;;;2.58;1.55;;;12.30;99.90;;;;;;4999079;28;25067;-73
2022/09/25 05:58:57;;;;;;;5.28;1.60;;;12.30;99.90;;;;;;4994245;28;25143;-73
2022/09/25 06:01:23;;;;;;;4.32;1.58;;;12.40;99.90;;;;;;4992847;28;25072;-74
2022/09/25 06:03:48;;;;;;;2.50;1.70;;;12.50;99.90;;;;;;4996708;28;25058;-75
2022/09/25 06:06:14;;;;;;;4.82;1.88;;;12.60;99.90;;;;;;5001432;28;25069;-72
2022/09/25 06:08:40;;;;;;;3.80;1.73;;;12.70;99.90;;;;;;4994695;28;25125;-75
2022/09/25 06:11:07;;;;;;;7.28;2.40;;;12.70;99.90;;;;;;4997469;28;25079;-74
2022/09/25 06:13:35;;;;;;;5.80;1.48;;;12.60;99.90;;;;;;5004863;28;26192;-74
2022/09/25 06:16:01;;;;;;;3.40;1.63;;;12.50;99.90;;;;;;4996879;28;25104;-74
2022/09/25 06:18:27;;;;;;;8.43;1.92;;;12.50;99.90;;;;;;5003987;28;25079;-75
2022/09/25 06:21:00;;;;;;;12.30;2.85;;;12.60;99.90;;;;;;5008548;28;25074;-73
2022/09/25 06:23:26;;;;;;;4.82;1.73;;;12.60;99.90;;;;;;4990396;28;25066;-75
2022/09/25 06:25:51;;;;;;;4.20;1.85;;;12.70;99.90;;;;;;5002687;28;25084;-74
2022/09/25 06:28:17;;;;;;;3.70;1.75;;;12.70;99.90;;;;;;5007049;28;25104;-73
2022/09/25 06:30:44;;;;;;;4.05;1.80;;;12.70;99.90;;;;;;4996333;28;25082;-73
2022/09/25 06:33:12;;;;;;;7.95;1.75;;;12.70;99.90;;;;;;4996907;28;25074;-73
2022/09/25 06:35:50;;;;;;;7.80;2.28;;;12.70;99.90;;;;;;5008482;28;25072;-73
2022/09/25 06:38:16;;;;;;;2.95;1.50;;;12.60;99.90;;;;;;5001057;28;25071;-73
2022/09/25 06:40:42;;;;;;;5.90;1.95;;;12.60;99.90;;;;;;5009232;28;25121;-75
2022/09/25 06:43:15;;;;;;;3.92;1.70;;;12.60;99.90;;;;;;4991723;28;25154;-75
2022/09/25 06:45:42;;;;;;;7.53;1.77;;;12.50;99.90;;;;;;4988836;28;25149;-73
2022/09/25 06:48:13;;;;;;;3.45;1.20;;;12.50;99.90;;;;;;4988998;28;24768;-74
2022/09/25 06:50:50;;;;;;;8.30;1.80;;;12.60;99.90;;;;;;4989544;28;25078;-74
2022/09/25 06:53:17;;;;;;;3.95;1.60;;;12.60;99.90;;;;;;4980334;28;25110;-73
2022/09/25 06:55:46;;;;;;;4.82;1.83;;;12.60;99.90;;;;;;4996226;28;25067;-73
2022/09/25 06:58:15;;;;;;;5.60;1.85;;;12.60;99.90;;;;;;4982282;28;25078;-73
2022/09/25 07:00:48;;;;;;;7.15;1.92;;;12.70;99.90;;;;;;4999367;28;25099;-73
2022/09/25 07:06:02;;;;;;;9.27;1.90;;;12.90;99.90;;;;;;4990773;28;25116;-73
2022/09/25 07:08:27;;;;;;;5.05;2.17;;;13.00;99.90;;;;;;5002518;28;25083;-74
2022/09/25 07:10:55;;;;;;;11.50;1.75;;;13.10;99.90;;;;;;4996323;28;25109;-74
2022/09/25 07:13:27;;;;;;;3.60;1.95;;;13.20;99.90;;;;;;4983397;28;25053;-76
2022/09/25 07:16:04;;;;;;;4.72;2.33;;;13.20;99.90;;;;;;4978410;28;25058;-73
2022/09/25 07:18:30;;;;;;;9.18;1.73;;;13.20;99.90;;;;;;4982340;28;25062;-73
2022/09/25 07:21:05;;;;;;;2.97;1.42;;;13.30;99.90;;;;;;5003671;28;25084;-74
2022/09/25 07:23:32;;;;;;;3.88;1.98;;;13.40;99.90;;;;;;4990781;28;25083;-74
2022/09/25 07:26:09;;;;;;;7.43;1.67;;;13.40;99.90;;;;;;4991472;28;25050;-74
2022/09/25 07:28:36;;;;;;;5.78;1.52;;;13.60;99.90;;;;;;4981336;28;25085;-75
2022/09/25 07:31:22;;;;;;;6.43;1.60;;;13.80;99.90;;;;;;4981295;28;25129;-74
2022/09/25 07:33:48;;;;;;;6.05;1.50;;;13.70;99.90;;;;;;5000417;28;25160;-76
2022/09/25 07:36:15;;;;;;;5.28;1.35;;;13.70;99.90;;;;;;4999985;28;25066;-75
2022/09/25 07:38:41;;;;;;;6.70;1.48;;;13.50;99.90;;;;;;4992645;28;25089;-75
2022/09/25 07:41:10;;;;;;;10.25;2.30;;;13.60;99.90;;;;;;5000067;28;25093;-75
2022/09/25 07:43:37;;;;;;;7.78;1.40;;;13.60;99.90;;;;;;4999761;28;25158;-76
2022/09/25 07:46:03;;;;;;;4.70;2.35;;;13.80;99.90;;;;;;4996248;28;25077;-74
2022/09/25 07:48:30;;;;;;;3.08;1.30;;;13.80;99.90;;;;;;4991604;28;25154;-75
2022/09/25 07:51:07;;;;;;;2.65;1.30;;;13.80;99.90;;;;;;4995996;28;25078;-76
2022/09/25 07:53:32;;;;;;;4.03;1.00;;;13.70;99.90;;;;;;4998678;28;25081;-75
2022/09/25 07:56:00;;;;;;;4.05;1.60;;;13.60;99.90;;;;;;4996355;28;25069;-74
2022/09/25 07:58:26;;;;;;;2.42;1.10;;;13.50;99.90;;;;;;4996771;28;25043;-74
2022/09/25 08:00:53;;;;;;;7.43;1.30;;;13.50;99.90;;;;;;4994334;28;25078;-75
2022/09/25 08:03:19;;;;;;;3.13;1.15;;;13.60;99.90;;;;;;4977723;28;25138;-74
2022/09/25 08:05:44;;;;;;;6.70;1.85;;;13.50;99.90;;;;;;4999868;28;25104;-75
2022/09/25 08:08:10;;;;;;;5.07;1.63;;;13.60;99.90;;;;;;4994588;28;25112;-74
2022/09/25 08:10:35;;;;;;;3.92;1.60;;;13.70;99.90;;;;;;4998661;28;25049;-74
2022/09/25 08:13:01;;;;;;;3.72;1.52;;;14.00;99.90;;;;;;5014233;28;25062;-73
2022/09/25 08:15:26;;;;;;;2.70;1.20;;;14.20;99.90;;;;;;5003117;28;25049;-73
2022/09/25 08:17:52;;;;;;;5.30;1.63;;;14.30;99.90;;;;;;5009769;28;25057;-73
2022/09/25 08:20:18;;;;;;;6.75;1.02;;;14.30;99.90;;;;;;5002052;28;25168;-73
2022/09/25 08:22:43;;;;;;;5.78;1.20;;;14.40;99.90;;;;;;5006964;28;25081;-74
2022/09/25 08:25:10;;;;;;;6.75;1.10;;;14.30;99.90;;;;;;5002785;28;25069;-75
2022/09/25 08:27:39;;;;;;;4.95;2.05;;;14.20;99.90;;;;;;5001755;28;25078;-72
2022/09/25 08:30:07;;;;;;;4.38;1.30;;;14.20;99.90;;;;;;4999539;28;25099;-73
2022/09/25 08:32:33;;;;;;;7.75;1.27;;;14.00;99.90;;;;;;5001499;28;25063;-72
2022/09/25 08:35:00;;;;;;;3.67;1.23;;;14.10;99.90;;;;;;5002411;28;25054;-73
2022/09/25 08:37:25;;;;;;;3.30;1.40;;;14.20;99.90;;;;;;5001982;28;25085;-72
2022/09/25 08:39:51;;;;;;;5.82;1.13;;;14.30;99.90;;;;;;5004243;28;25119;-73
2022/09/25 08:42:28;;;;;;;2.00;0.93;;;14.40;99.90;;;;;;4996179;28;25077;-74
2022/09/25 08:50:28;;;;;;;3.78;1.00;;;15.00;99.90;;;;;;5002699;28;25059;-74
2022/09/25 08:53:04;;;;;;;3.75;0.70;;;15.40;99.90;;;;;;5015986;28;25084;-73
2022/09/25 08:58:28;;;;;;;2.22;0.65;;;15.90;99.90;;;;;;5004340;28;25068;-73
2022/09/25 09:01:02;;;;;;;2.22;0.90;;;15.50;99.90;;;;;;4997708;28;25052;-73
2022/09/25 09:03:30;;;;;;;3.38;1.20;;;15.60;99.90;;;;;;4999951;28;25073;-74
2022/09/25 09:06:03;;;;;;;4.72;1.10;;;15.30;99.90;;;;;;4997282;28;25076;-73
2022/09/25 09:08:32;;;;;;;1.77;0.70;;;15.20;99.90;;;;;;5000163;28;25176;-73
2022/09/25 09:11:29;;;;;;;3.33;0.90;;;15.20;99.90;;;;;;5001485;28;25054;-72
2022/09/25 09:14:03;;;;;;;3.38;1.17;;;15.20;99.90;;;;;;4996512;28;25179;-72
2022/09/25 09:16:34;;;;;;;5.32;1.10;;;15.00;99.90;;;;;;4998218;28;25119;-74
2022/09/25 09:19:04;;;;;;;4.68;1.38;;;15.00;99.90;;;;;;5001754;28;25080;-73
2022/09/25 09:21:41;;;;;;;2.33;1.10;;;15.10;99.90;;;;;;5000159;28;25053;-74
2022/09/25 09:24:15;;;;;;;4.03;0.80;;;15.10;99.90;;;;;;4999846;28;25120;-73
2022/09/25 09:26:54;;;;;;;2.85;0.75;;;15.10;99.90;;;;;;5000931;28;25095;-74
2022/09/25 09:29:57;;;;;;;2.33;0.70;;;15.00;99.90;;;;;;4994331;28;25072;-72
2022/09/25 09:32:29;;;;;;;;;;;15.00;99.90;;;;;;4998264;28;25065;-74
2022/09/25 09:35:32;;;;;;;4.28;0.73;;;14.90;99.90;;;;;;4999789;28;25066;-74
2022/09/25 09:38:15;;;;;;;5.05;0.95;;;14.80;99.90;;;;;;4998072;28;25060;-73
2022/09/25 09:41:11;;;;;;;3.63;0.60;;;14.90;99.90;;;;;;4997040;28;25163;-71
2022/09/25 09:43:53;;;;;;;9.07;1.30;;;14.90;99.90;;;;;;4998246;28;25077;-73
2022/09/25 09:46:43;;;;;;;1.75;0.63;;;14.90;99.90;;;;;;5000404;28;25103;-72
2022/09/25 09:49:32;;;;;;;1.85;0.70;;;15.00;99.90;;;;;;5003716;28;25103;-73
2022/09/25 09:52:13;;;;;;;0.98;0.60;;;15.30;99.90;;;;;;4997558;28;25085;-74
2022/09/25 09:55:19;;;;;;;2.30;0.70;;;15.50;99.90;;;;;;4999861;28;25060;-74
2022/09/25 09:57:51;;;;;;;6.75;0.93;;;15.40;99.90;;;;;;5007724;28;25081;-74
2022/09/25 10:00:18;;;;;;;;;;;15.20;99.90;;;;;;5024147;28;25059;-74
2022/09/25 10:03:10;;;;;;;4.45;0.70;;;15.20;99.90;;;;;;5013412;28;24064;-73
2022/09/25 10:05:41;;;;;;;4.13;0.95;;;15.30;99.90;;;;;;5002370;28;25068;-75
2022/09/25 10:08:09;;;;;;;2.78;0.70;;;15.40;99.90;;;;;;4990302;28;25098;-72
2022/09/25 10:10:38;;;;;;;2.67;0.60;;;15.30;99.90;;;;;;4997527;28;25064;-72
2022/09/25 10:13:19;;;;;;;3.55;0.52;;;15.30;99.90;;;;;;4985951;28;25053;-74
2022/09/25 10:15:51;;;;;;;1.42;0.45;;;15.30;99.90;;;;;;4996805;28;25148;-73
2022/09/25 10:18:20;;;;;;;3.55;1.10;;;15.50;99.90;;;;;;4990710;28;25082;-76
2022/09/25 10:20:52;;;;;;;2.55;0.60;;;15.40;99.90;;;;;;4988906;28;25081;-72
2022/09/25 10:23:40;;;;;;;2.20;0.73;;;15.80;99.90;;;;;;4998120;28;25067;-72
2022/09/25 10:26:27;;;;;;;2.67;0.55;;;15.70;99.90;;;;;;4992657;28;25072;-75
2022/09/25 10:28:58;;;;;;;1.42;0.50;;;15.90;99.90;;;;;;5006008;28;25135;-73
2022/09/25 10:31:32;;;;;;;2.83;0.50;;;15.90;99.90;;;;;;4996378;28;25153;-75
2022/09/25 10:34:04;;;;;;;1.92;0.52;;;15.80;99.90;;;;;;4987169;28;25060;-73
2022/09/25 10:36:33;;;;;;;1.38;0.57;;;15.80;99.90;;;;;;5002325;28;25085;-73
2022/09/25 10:38:58;;;;;;;6.15;0.93;;;15.70;99.90;;;;;;5001292;28;25145;-76
2022/09/25 10:41:25;;;;;;;2.63;0.82;;;15.70;99.90;;;;;;5005023;28;25073;-72
2022/09/25 10:43:57;;;;;;;2.13;1.08;;;15.70;99.90;;;;;;5015464;28;25076;-74
2022/09/25 10:52:06;;;;;;;4.15;1.15;;;15.60;99.90;;;;;;5020317;28;25073;-75
2022/09/25 10:54:32;;;;;;;2.75;0.68;;;15.40;99.90;;;;;;5021620;28;25064;-75
2022/09/25 10:56:58;;;;;;;1.88;0.70;;;15.40;99.90;;;;;;5013580;28;25169;-76
2022/09/25 10:59:24;;;;;;;3.00;0.90;;;15.50;99.90;;;;;;4997502;28;25132;-74
2022/09/25 11:01:53;;;;;;;2.63;1.13;;;15.50;99.90;;;;;;4989878;28;25060;-75
2022/09/25 11:04:33;;;;;;;2.72;0.80;;;15.40;99.90;;;;;;4992290;28;25059;-73
2022/09/25 11:07:03;;;;;;;2.15;1.13;;;15.30;99.90;;;;;;4983593;28;25065;-73
2022/09/25 11:09:31;;;;;;;2.28;0.95;;;15.20;99.90;;;;;;5003263;28;25058;-74
2022/09/25 11:12:31;;;;;;;2.40;0.90;;;15.30;99.90;;;;;;4994039;28;25043;-74
2022/09/25 11:15:04;;;;;;;0.50;0.50;;;15.50;99.90;;;;;;4988622;28;25048;-74
2022/09/25 11:17:50;;;;;;;4.68;1.08;;;15.60;99.90;;;;;;4990754;28;25163;-75
2022/09/25 11:20:26;;;;;;;4.75;0.93;;;15.80;99.90;;;;;;4996178;28;25070;-75
2022/09/25 11:23:07;;;;;;;0.68;0.30;;;16.10;99.90;;;;;;4990615;28;25074;-74
2022/09/25 11:25:55;;;;;;;1.95;0.68;;;16.30;99.90;;;;;;4992306;28;25077;-77
2022/09/25 11:28:48;;;;;;;6.90;1.40;;;16.70;99.90;;;;;;4996772;28;25071;-77
2022/09/25 11:31:25;;;;;;;1.52;0.40;;;16.70;99.90;;;;;;4971144;28;25056;-75
2022/09/25 11:34:07;;;;;;;0.95;0.22;;;17.20;99.90;;;;;;4989822;28;25058;-77
2022/09/25 11:36:48;;;;;;;;;;;17.80;99.90;;;;;;4995617;28;25094;-76
2022/09/25 11:42:29;;;;;;;;;;;19.20;99.90;;;;;;4998717;28;25058;-77
2022/09/25 11:45:08;;;;;;;1.75;0.40;;;19.00;99.90;;;;;;5004174;28;24101;-79
2022/09/25 11:47:55;;;;;;;1.38;0.55;;;18.20;99.90;;;;;;5000670;28;25057;-76
2022/09/25 11:51:04;;;;;;;3.35;0.57;;;17.90;99.90;;;;;;5002836;28;25081;-75
2022/09/25 11:53:40;;;;;;;0.90;0.38;;;17.40;99.90;;;;;;4929869;29;25089;-75
2022/09/25 11:56:17;;;;;;;0.93;0.63;;;16.60;99.90;;;;;;4934130;29;25124;-75
2022/09/25 11:59:09;;;;;;;2.20;0.47;;;16.20;99.90;;;;;;4982633;28;25058;-77
2022/09/25 12:01:47;;;;;;;6.88;1.00;;;15.80;99.90;;;;;;5014573;28;25076;-72
2022/09/25 12:04:15;;;;;;;0.70;0.60;;;15.80;99.90;;;;;;5018143;28;25117;-76
2022/09/25 12:06:54;;;;;;;2.25;0.65;;;16.00;99.90;;;;;;5010104;28;25082;-72
2022/09/25 12:09:48;;;;;;;1.45;0.45;;;16.10;99.90;;;;;;4966833;28;25088;-75
2022/09/25 12:12:20;;;;;;;4.18;0.73;;;16.30;99.90;;;;;;5008572;28;25074;-75
2022/09/25 12:14:48;;;;;;;3.03;0.80;;;16.50;99.90;;;;;;5018434;28;25064;-75
2022/09/25 12:17:39;;;;;;;1.10;0.60;;;16.90;99.90;;;;;;5007065;28;25064;-75
2022/09/25 12:20:16;;;;;;;5.93;0.95;;;17.80;99.90;;;;;;4999894;28;25106;-76
2022/09/25 12:22:59;;;;;;;0.77;0.47;;;18.30;99.90;;;;;;4996105;28;25115;-75
2022/09/25 12:25:49;;;;;;;3.33;0.60;;;19.00;99.90;;;;;;4991873;28;25065;-76
2022/09/25 12:28:52;;;;;;;3.40;0.80;;;19.40;99.90;;;;;;4986417;28;25091;-75
2022/09/25 12:31:29;;;;;;;5.22;0.70;;;18.80;99.90;;;;;;4970831;28;25043;-77
2022/09/25 12:34:25;;;;;;;3.20;0.82;;;19.60;99.90;;;;;;4993774;28;25068;-75
2022/09/25 12:37:13;;;;;;;3.00;0.60;;;19.30;99.90;;;;;;4999379;28;25080;-76
2022/09/25 12:40:02;;;;;;;0.82;0.68;;;18.60;99.90;;;;;;5001967;28;25099;-75
2022/09/25 12:42:56;;;;;;;1.02;0.40;;;18.60;99.90;;;;;;4996216;28;25107;-74
2022/09/25 12:45:48;;;;;;;3.63;0.60;;;18.60;99.90;;;;;;4996553;28;25098;-74
2022/09/25 12:48:25;;;;;;;1.08;0.30;;;18.50;99.90;;;;;;4969227;28;25070;-76
2022/09/25 12:50:57;;;;;;;0.90;0.35;;;18.00;99.90;;;;;;4991010;28;25056;-78
2022/09/25 12:53:31;;;;;;;1.58;0.95;;;17.70;99.90;;;;;;5001436;28;25105;-78
2022/09/25 12:56:21;;;;;;;2.28;0.50;;;18.60;99.90;;;;;;4990854;28;25092;-74
2022/09/25 12:58:56;;;;;;;0.52;0.35;;;18.30;99.90;;;;;;4997769;28;25134;-76
2022/09/25 13:01:44;;;;;;;0.82;0.30;;;17.80;99.90;;;;;;4989526;28;25105;-76
2022/09/25 13:04:19;;;;;;;0.65;0.57;;;17.20;99.90;;;;;;4989524;28;25110;-76
2022/09/25 13:06:55;;;;;;;2.13;0.50;;;17.00;99.90;;;;;;5006701;28;25071;-75
2022/09/25 13:09:43;;;;;;;1.60;0.50;;;16.80;99.90;;;;;;4991047;28;25085;-75
2022/09/25 13:12:31;;;;;;;0.50;0.32;;;16.50;99.90;;;;;;4997648;28;25075;-76
2022/09/25 13:15:06;;;;;;;2.28;0.50;;;16.60;99.90;;;;;;4990836;28;25080;-76
2022/09/25 13:17:32;;;;;;;4.47;0.63;;;16.60;99.90;;;;;;4998623;28;25160;-76
2022/09/25 13:20:26;;;;;;;0.82;0.40;;;16.70;99.90;;;;;;5007620;28;25054;-74
2022/09/25 13:23:07;;;;;;;2.97;0.55;;;16.50;99.90;;;;;;4998159;28;25061;-74
2022/09/25 13:25:43;;;;;;;0.80;0.50;;;16.60;99.90;;;;;;4997827;28;25073;-75
2022/09/25 13:28:17;;;;;;;1.65;0.60;;;17.00;99.90;;;;;;4994138;28;25064;-74
2022/09/25 13:30:58;;;;;;;0.85;0.35;;;17.30;99.90;;;;;;5002708;28;25056;-76
2022/09/25 13:33:25;;;;;;;1.60;0.68;;;17.30;99.90;;;;;;5000775;28;24800;-75
2022/09/25 13:36:06;;;;;;;2.47;0.50;;;17.10;99.90;;;;;;5007815;28;25091;-74
2022/09/25 13:41:32;;;;;;;0.32;0.32;;;16.30;99.90;;;;;;4965953;28;25144;-74
2022/09/25 13:44:38;;;;;;;0.55;0.28;;;16.20;99.90;;;;;;5004192;28;25084;-74
2022/09/25 13:47:22;;;;;;;4.10;0.75;;;16.10;99.90;;;;;;5009569;28;25063;-73